createdAt,value
2023-04-08T00:03:13.742Z,100769.44
2023-04-08T00:08:23.651Z,100760.50
2023-04-08T00:13:31.749Z,100759.84
2023-04-08T00:18:38.212Z,100758.31
2023-04-08T00:23:43.599Z,100754.94
2023-04-08T00:28:47.100Z,100754.03
2023-04-08T00:33:53.576Z,100766.94
2023-04-08T00:38:57.759Z,100767.94
2023-04-08T00:44:01.716Z,100761.19
2023-04-08T00:49:08.248Z,100758.69
2023-04-08T00:54:12.025Z,100764.63
2023-04-08T00:59:15.865Z,100767.94
2023-04-08T01:04:30.892Z,100761.22
2023-04-08T01:09:44.155Z,100756.22
2023-04-08T01:14:50.489Z,100756.44
2023-04-08T01:19:57.615Z,100765.78
2023-04-08T01:25:08.104Z,100773.06
2023-04-08T01:30:15.585Z,100771.59
2023-04-08T01:35:25.546Z,100769.72
2023-04-08T01:40:28.992Z,100768.16
2023-04-08T01:45:33.884Z,100763.25
2023-04-08T01:50:38.625Z,100771.16
2023-04-08T01:55:43.879Z,100767.91
2023-04-08T02:00:49.674Z,100766.16
2023-04-08T02:05:52.973Z,100766.03
2023-04-08T02:10:56.412Z,100755.75
2023-04-08T02:16:08.290Z,100752.84
2023-04-08T02:21:15.883Z,100753.66
2023-04-08T02:26:20.255Z,100762.41
2023-04-08T02:31:28.070Z,100755.25
2023-04-08T02:36:34.662Z,100761.69
2023-04-08T02:41:38.026Z,100767.63
2023-04-08T02:46:42.914Z,100760.53
2023-04-08T02:51:46.458Z,100770.31
2023-04-08T02:56:49.983Z,100767.09
2023-04-08T03:01:55.021Z,100767.38
2023-04-08T03:06:58.600Z,100769.97
2023-04-08T03:12:02.046Z,100773.97
2023-04-08T03:17:06.899Z,100771.44
2023-04-08T03:22:11.309Z,100769.56
2023-04-08T03:27:14.598Z,100781.13
2023-04-08T03:32:19.403Z,100781.31
2023-04-08T03:37:23.161Z,100777.13
2023-04-08T03:42:26.461Z,100792.66
2023-04-08T03:47:31.888Z,100796.00
2023-04-08T03:52:36.050Z,100793.41
2023-04-08T03:57:39.301Z,100803.88
2023-04-08T04:02:44.002Z,100792.66
2023-04-08T04:07:47.561Z,100794.63
2023-04-08T04:12:51.805Z,100806.81
2023-04-08T04:17:56.676Z,100792.28
2023-04-08T04:23:00.452Z,100805.94
2023-04-08T04:28:04.354Z,100816.56
2023-04-08T04:33:11.354Z,100820.63
2023-04-08T04:38:15.001Z,100821.75
2023-04-08T04:43:18.458Z,100821.75
2023-04-08T04:48:24.386Z,100840.72
2023-04-08T04:53:28.379Z,100833.75
2023-04-08T04:58:32.703Z,100841.56
2023-04-08T05:03:39.692Z,100845.72
2023-04-08T05:08:42.954Z,100830.03
2023-04-08T05:13:46.635Z,100841.38
2023-04-08T05:18:51.736Z,100853.63
2023-04-08T05:23:55.480Z,100861.31
2023-04-08T05:28:59.066Z,100867.25
2023-04-08T05:34:04.061Z,100866.44
2023-04-08T05:39:07.326Z,100862.19
2023-04-08T05:44:10.578Z,100866.44
2023-04-08T05:49:15.820Z,100860.41
2023-04-08T05:54:19.082Z,100866.53
2023-04-08T05:59:22.551Z,100873.41
2023-04-08T06:04:27.701Z,100874.13
2023-04-08T06:09:31.019Z,100877.31
2023-04-08T06:14:34.233Z,100892.63
2023-04-08T06:19:38.958Z,100894.94
2023-04-08T06:24:42.563Z,100885.06
2023-04-08T06:29:50.975Z,100895.13
2023-04-08T06:34:55.790Z,100912.41
2023-04-08T06:40:00.404Z,100907.94
2023-04-08T06:45:12.433Z,100918.81
2023-04-08T06:50:20.107Z,100912.75
2023-04-08T06:55:23.517Z,100929.47
2023-04-08T07:00:29.768Z,100930.03
2023-04-08T07:05:37.110Z,100938.22
2023-04-08T07:10:40.420Z,100937.19
2023-04-08T07:15:43.814Z,100939.50
2023-04-08T07:20:53.281Z,100939.88
2023-04-08T07:25:57.132Z,100948.09
2023-04-08T07:31:11.025Z,100948.09
2023-04-08T07:36:18.650Z,100951.25
2023-04-08T07:41:22.313Z,100963.16
2023-04-08T07:46:25.799Z,100958.81
2023-04-08T07:51:30.554Z,100956.03
2023-04-08T07:56:33.708Z,100965.78
2023-04-08T08:01:37.125Z,100962.28
2023-04-08T08:06:41.678Z,100969.91
2023-04-08T08:11:52.859Z,100978.56
2023-04-08T08:16:57.318Z,100984.31
2023-04-08T08:22:02.254Z,100984.31
2023-04-08T08:27:07.188Z,100989.53
2023-04-08T08:32:16.677Z,100991.84
2023-04-08T08:37:21.417Z,100986.72
2023-04-08T08:42:25.916Z,100995.41
2023-04-08T08:47:29.578Z,100998.97
2023-04-08T08:52:34.897Z,101015.03
2023-04-08T08:57:38.479Z,101014.09
2023-04-08T09:02:42.278Z,101002.75
2023-04-08T09:07:47.119Z,101005.66
2023-04-08T09:12:57.694Z,101010.81
2023-04-08T09:18:01.187Z,101017.41
2023-04-08T09:23:06.146Z,101029.38
2023-04-08T09:28:21.194Z,101024.28
2023-04-08T09:33:31.953Z,101036.72
2023-04-08T09:38:36.863Z,101033.50
2023-04-08T09:43:49.270Z,101036.56
2023-04-08T09:49:03.669Z,101040.53
2023-04-08T09:54:15.817Z,101044.81
2023-04-08T09:59:21.933Z,101050.56
2023-04-08T10:04:31.006Z,101054.31
2023-04-08T10:09:36.398Z,101048.19
2023-04-08T10:14:40.872Z,101053.00
2023-04-08T10:19:44.691Z,101053.41
2023-04-08T10:25:22.046Z,101059.88
2023-04-08T10:30:43.454Z,101065.53
2023-04-08T10:35:51.418Z,101068.34
2023-04-08T10:41:02.344Z,101058.66
2023-04-08T10:46:07.456Z,101061.13
2023-04-08T10:51:17.324Z,101067.25
2023-04-08T10:56:22.073Z,101064.41
2023-04-08T11:01:38.924Z,101062.19
2023-04-08T11:06:44.713Z,101057.59
2023-04-08T11:11:48.800Z,101062.31
2023-04-08T11:16:53.988Z,101065.69
2023-04-08T11:22:00.706Z,101063.13
2023-04-08T11:27:04.854Z,101062.06
2023-04-08T11:32:12.938Z,101056.69
2023-04-08T11:37:16.719Z,101058.69
2023-04-08T11:42:29.979Z,101057.72
2023-04-08T11:47:35.439Z,101059.19
2023-04-08T11:52:46.047Z,101055.59
2023-04-08T11:57:54.835Z,101049.78
2023-04-08T12:03:00.698Z,101049.75
2023-04-08T12:08:07.057Z,101059.38
2023-04-08T12:13:13.930Z,101067.72
2023-04-08T12:18:21.098Z,101060.44
2023-04-08T12:23:24.881Z,101058.53
2023-04-08T12:28:31.949Z,101069.31
2023-04-08T12:33:36.842Z,101064.88
2023-04-08T12:38:40.090Z,101066.06
2023-04-08T12:43:43.297Z,101061.66
2023-04-08T12:48:59.950Z,101069.66
2023-04-08T12:54:09.251Z,101063.53
2023-04-08T12:59:13.347Z,101070.44
2023-04-08T13:04:21.073Z,101066.84
2023-04-08T13:09:24.333Z,101060.00
2023-04-08T13:14:33.778Z,101057.97
2023-04-08T13:19:38.484Z,101071.28
2023-04-08T13:24:44.205Z,101067.00
2023-04-08T13:29:47.563Z,101067.38
2023-04-08T13:34:56.408Z,101071.38
2023-04-08T13:40:01.885Z,101072.59
2023-04-08T13:45:10.248Z,101074.66
2023-04-08T13:50:15.834Z,101067.75
2023-04-08T13:55:21.085Z,101061.75
2023-04-08T14:00:27.266Z,101069.41
2023-04-08T14:05:33.506Z,101061.78
2023-04-08T14:10:37.154Z,101065.69
2023-04-08T14:15:40.839Z,101067.66
2023-04-08T14:20:45.848Z,101073.22
2023-04-08T14:25:49.190Z,101068.91
2023-04-08T14:30:54.027Z,101072.03
2023-04-08T14:35:59.156Z,101079.81
2023-04-08T14:41:02.750Z,101071.78
2023-04-08T14:46:06.362Z,101078.25
2023-04-08T14:51:11.551Z,101077.28
2023-04-08T14:56:15.601Z,101091.47
2023-04-08T15:01:18.917Z,101083.03
2023-04-08T15:06:23.792Z,101085.78
2023-04-08T15:11:27.032Z,101083.75
2023-04-08T15:16:30.698Z,101083.16
2023-04-08T15:21:35.640Z,101083.16
2023-04-08T15:26:39.020Z,101084.09
2023-04-08T15:31:42.782Z,101089.38
2023-04-08T15:36:47.839Z,101087.72
2023-04-08T15:41:53.280Z,101086.75
2023-04-08T15:46:56.658Z,101094.59
2023-04-08T15:52:08.578Z,101098.66
2023-04-08T15:57:16.336Z,101095.91
2023-04-08T16:02:20.127Z,101108.31
2023-04-08T16:07:24.834Z,101118.91
2023-04-08T16:12:29.006Z,101133.25
2023-04-08T16:17:32.488Z,101136.22
2023-04-08T16:22:37.460Z,101140.44
2023-04-08T16:27:40.843Z,101143.50
2023-04-08T16:32:44.118Z,101152.59
2023-04-08T16:37:48.851Z,101148.16
2023-04-08T16:42:52.505Z,101158.72
2023-04-08T16:47:55.982Z,101160.81
2023-04-08T16:53:00.824Z,101170.94
2023-04-08T16:58:05.049Z,101180.78
2023-04-08T17:03:08.450Z,101189.78
2023-04-08T17:08:13.424Z,101194.50
2023-04-08T17:13:16.808Z,101203.88
2023-04-08T17:18:20.167Z,101201.78
2023-04-08T17:23:25.458Z,101206.78
2023-04-08T17:28:29.290Z,101219.03
2023-04-08T17:33:42.378Z,101225.19
2023-04-08T17:38:49.547Z,101228.00
2023-04-08T17:43:53.758Z,101229.28
2023-04-08T17:48:57.934Z,101231.03
2023-04-08T17:54:02.724Z,101241.59
2023-04-08T17:59:05.998Z,101245.25
2023-04-08T18:04:11.078Z,101246.91
2023-04-08T18:09:17.128Z,101262.06
2023-04-08T18:14:26.388Z,101270.63
2023-04-08T18:19:36.901Z,101276.06
2023-04-08T18:24:42.861Z,101274.00
2023-04-08T18:29:47.803Z,101281.41
2023-04-08T18:34:52.550Z,101283.56
2023-04-08T18:40:02.519Z,101290.69
2023-04-08T18:45:06.753Z,101299.28
2023-04-08T18:50:11.722Z,101294.25
2023-04-08T18:55:17.112Z,101302.06
2023-04-08T19:00:20.317Z,101302.38
2023-04-08T19:05:23.992Z,101301.44
2023-04-08T19:10:31.073Z,101308.91
2023-04-08T19:15:37.114Z,101302.94
2023-04-08T19:20:40.591Z,101309.31
2023-04-08T19:25:46.415Z,101300.63
2023-04-08T19:30:51.029Z,101307.72
2023-04-08T19:35:57.626Z,101286.84
2023-04-08T19:41:06.836Z,101281.81
2023-04-08T19:46:14.614Z,101290.50
2023-04-08T19:51:38.928Z,101297.56
2023-04-08T19:56:44.191Z,101298.41
2023-04-08T20:01:48.772Z,101294.84
2023-04-08T20:06:52.224Z,101298.41
2023-04-08T20:12:03.554Z,101298.59
2023-04-08T20:17:06.869Z,101305.97
2023-04-08T20:22:10.865Z,101313.59
2023-04-08T20:27:16.802Z,101311.09
2023-04-08T20:32:20.216Z,101311.38
2023-04-08T20:37:23.559Z,101322.28
2023-04-08T20:42:29.090Z,101330.31
2023-04-08T20:47:33.561Z,101327.69
2023-04-08T20:52:36.959Z,101333.38
2023-04-08T20:57:41.913Z,101332.59
2023-04-08T21:02:45.454Z,101325.09
2023-04-08T21:07:48.792Z,101321.91
2023-04-08T21:12:54.076Z,101330.03
2023-04-08T21:17:57.646Z,101325.16
2023-04-08T21:23:00.976Z,101331.47
2023-04-08T21:28:05.643Z,101338.00
2023-04-08T21:33:09.606Z,101333.31
2023-04-08T21:38:13.054Z,101338.59
2023-04-08T21:43:17.636Z,101348.50
2023-04-08T21:48:21.432Z,101344.69
2023-04-08T21:53:24.664Z,101354.72
2023-04-08T21:58:29.359Z,101356.06
2023-04-08T22:03:32.660Z,101354.06
2023-04-08T22:08:36.011Z,101350.09
2023-04-08T22:13:40.578Z,101353.19
2023-04-08T22:18:44.080Z,101344.72
2023-04-08T22:23:47.428Z,101337.38
2023-04-08T22:28:52.233Z,101339.41
2023-04-08T22:33:55.610Z,101336.38
2023-04-08T22:38:58.846Z,101336.88
2023-04-08T22:44:03.675Z,101337.19
2023-04-08T22:49:09.950Z,101335.81
2023-04-08T22:54:13.552Z,101337.06
2023-04-08T22:59:18.283Z,101342.59
2023-04-08T23:04:21.720Z,101346.44
2023-04-08T23:09:26.745Z,101359.00
2023-04-08T23:14:31.404Z,101360.19
2023-04-08T23:19:34.828Z,101360.75
2023-04-08T23:24:38.120Z,101363.81
2023-04-08T23:29:42.847Z,101359.06
2023-04-08T23:34:46.042Z,101364.63
2023-04-08T23:39:49.166Z,101357.16
2023-04-08T23:44:54.209Z,101358.34
2023-04-08T23:49:57.882Z,101349.94
2023-04-08T23:55:01.282Z,101357.19
